Time;durP1;ratioP1;P1;durP2;ratioP2;P2;SDS_P1;SDS_P2;PMS_P1;PMS_P2;Temp;Humidity;BMP_temperature;BMP_pressure;BME280_temperature;BME280_humidity;BME280_pressure;Samples;Min_cycle;Max_cycle;Signal;HPM_P1;HPM_P2
2023/03/05 00:03:13;;;;;;;11.63;5.63;;;;;;;;;;10392098;28;20056;-84
2023/03/05 00:08:14;;;;;;;12.13;4.00;;;;;;;;;;10392406;28;20117;-84
2023/03/05 00:13:15;;;;;;;10.00;3.83;;;;;;;;;;10405298;28;20017;-84
2023/03/05 00:18:16;;;;;;;9.40;3.90;;;;;;;;;;10403249;28;20045;-83
2023/03/05 00:23:17;;;;;;;10.87;3.33;;;;;;;;;;10384998;28;20432;-83
2023/03/05 00:28:18;;;;;;;9.20;2.93;;;;;;;;;;10399812;28;20041;-84
2023/03/05 00:33:19;;;;;;;6.37;3.00;;;;;;;;;;10368465;28;20470;-83
2023/03/05 00:38:20;;;;;;;7.43;2.77;;;;;;;;;;10387207;28;20033;-83
2023/03/05 00:43:21;;;;;;;7.37;2.93;;;;;;;;;;10395280;28;20033;-83
2023/03/05 00:48:24;;;;;;;8.53;3.17;;;;;;;;;;10384676;28;20433;-83
2023/03/05 00:53:25;;;;;;;12.93;3.17;;;;;;;;;;10381287;28;20025;-83
2023/03/05 00:58:26;;;;;;;9.33;3.53;;;;;;;;;;10391776;28;20405;-83
2023/03/05 01:03:27;;;;;;;7.43;3.17;;;;;;;;;;10395792;28;20041;-83
2023/03/05 01:08:28;;;;;;;6.53;2.73;;;;;;;;;;10382200;28;20029;-83
2023/03/05 01:13:29;;;;;;;9.10;3.77;;;;;;;;;;10399002;28;20026;-83
2023/03/05 01:18:30;;;;;;;10.63;3.27;;;;;;;;;;10384416;28;20034;-83
2023/03/05 01:23:33;;;;;;;7.30;2.80;;;;;;;;;;10391755;28;20041;-83
2023/03/05 01:28:34;;;;;;;10.70;2.97;;;;;;;;;;10394120;28;20053;-83
2023/03/05 01:33:35;;;;;;;7.20;3.43;;;;;;;;;;10392537;28;20124;-83
2023/03/05 01:38:36;;;;;;;10.73;3.27;;;;;;;;;;10382540;28;20031;-83
2023/03/05 01:43:37;;;;;;;6.47;2.50;;;;;;;;;;10405884;28;20564;-83
2023/03/05 01:48:42;;;;;;;9.90;3.23;;;;;;;;;;10389629;28;20076;-83
2023/03/05 01:53:43;;;;;;;7.07;3.30;;;;;;;;;;10379785;28;20108;-83
2023/03/05 01:58:44;;;;;;;6.17;2.67;;;;;;;;;;10395101;28;20041;-83
2023/03/05 02:03:46;;;;;;;12.10;3.57;;;;;;;;;;10394287;28;20037;-83
2023/03/05 02:08:47;;;;;;;13.10;3.20;;;;;;;;;;10383657;28;20033;-83
2023/03/05 02:13:49;;;;;;;12.33;3.83;;;;;;;;;;10400772;28;20045;-83
2023/03/05 02:18:50;;;;;;;30.83;9.47;;;;;;;;;;10387036;28;20033;-83
2023/03/05 02:23:51;;;;;;;30.23;9.83;;;;;;;;;;10380414;28;20461;-83
2023/03/05 02:28:55;;;;;;;12.67;4.60;;;;;;;;;;10400992;28;20040;-83
2023/03/05 02:33:56;;;;;;;13.57;5.53;;;;;;;;;;10384103;28;20477;-83
2023/03/05 02:38:58;;;;;;;16.90;6.67;;;;;;;;;;10369861;28;20176;-83
2023/03/05 02:43:58;;;;;;;13.33;4.80;;;;;;;;;;10397646;28;20064;-84
2023/03/05 02:48:59;;;;;;;21.23;7.00;;;;;;;;;;10386720;28;20030;-84
2023/03/05 02:54:01;;;;;;;18.93;7.13;;;;;;;;;;10371240;28;20465;-83
2023/03/05 02:59:02;;;;;;;22.80;9.00;;;;;;;;;;10384610;28;20553;-83
2023/03/05 03:04:05;;;;;;;26.67;11.33;;;;;;;;;;10395720;28;20049;-83
2023/03/05 03:09:06;;;;;;;26.30;12.43;;;;;;;;;;10385110;28;20396;-84
2023/03/05 03:14:07;;;;;;;20.47;9.20;;;;;;;;;;10397180;28;20036;-83
2023/03/05 03:19:08;;;;;;;31.03;15.90;;;;;;;;;;10373358;28;20102;-84
2023/03/05 03:24:09;;;;;;;29.77;14.73;;;;;;;;;;10376368;28;20083;-84
2023/03/05 03:29:10;;;;;;;29.13;13.37;;;;;;;;;;10384419;28;20469;-83
2023/03/05 03:34:12;;;;;;;27.23;14.17;;;;;;;;;;10382677;28;20029;-85
2023/03/05 03:39:13;;;;;;;34.43;17.03;;;;;;;;;;10375640;28;20045;-83
2023/03/05 03:44:16;;;;;;;34.90;16.33;;;;;;;;;;10388796;28;20057;-83
2023/03/05 03:49:19;;;;;;;33.80;15.63;;;;;;;;;;10379381;28;20044;-83
2023/03/05 03:54:20;;;;;;;23.73;11.93;;;;;;;;;;10383648;28;20045;-84
2023/03/05 03:59:21;;;;;;;27.03;11.87;;;;;;;;;;10385235;28;20819;-83
2023/03/05 04:04:25;;;;;;;19.77;9.40;;;;;;;;;;10370043;28;20041;-84
2023/03/05 04:09:26;;;;;;;19.47;9.13;;;;;;;;;;10389604;28;20116;-83
2023/03/05 04:14:27;;;;;;;22.33;10.33;;;;;;;;;;10396256;28;20401;-84
2023/03/05 04:19:29;;;;;;;23.30;10.53;;;;;;;;;;10367519;28;20040;-84
2023/03/05 04:24:30;;;;;;;17.83;7.80;;;;;;;;;;10377085;28;20148;-83
2023/03/05 04:29:31;;;;;;;19.63;8.23;;;;;;;;;;10379289;28;20390;-84
2023/03/05 04:34:32;;;;;;;17.73;7.60;;;;;;;;;;10383470;28;20030;-84
2023/03/05 04:39:33;;;;;;;22.50;11.00;;;;;;;;;;10383341;28;20434;-84
2023/03/05 04:44:34;;;;;;;24.40;11.37;;;;;;;;;;10391108;28;20136;-84
2023/03/05 04:49:35;;;;;;;31.43;12.87;;;;;;;;;;10385662;28;20481;-83
2023/03/05 04:54:37;;;;;;;34.67;16.27;;;;;;;;;;10390505;28;20057;-84
2023/03/05 04:59:38;;;;;;;39.97;17.20;;;;;;;;;;10394717;28;20040;-83
2023/03/05 05:04:42;;;;;;;53.33;23.03;;;;;;;;;;10385566;28;20096;-83
2023/03/05 05:09:43;;;;;;;60.13;28.97;;;;;;;;;;10400047;28;20041;-83
2023/03/05 05:14:44;;;;;;;30.07;12.67;;;;;;;;;;10390657;28;20390;-84
2023/03/05 05:19:45;;;;;;;35.47;16.17;;;;;;;;;;10379176;28;20037;-84
2023/03/05 05:24:46;;;;;;;37.03;18.27;;;;;;;;;;10391412;28;20481;-84
2023/03/05 05:29:49;;;;;;;43.03;18.30;;;;;;;;;;10379284;28;20033;-84
2023/03/05 05:34:54;;;;;;;35.03;15.80;;;;;;;;;;10371208;28;20029;-84
2023/03/05 05:39:55;;;;;;;23.50;12.40;;;;;;;;;;10373616;28;20030;-84
2023/03/05 05:44:56;;;;;;;35.57;15.33;;;;;;;;;;10386142;28;20469;-84
2023/03/05 05:49:57;;;;;;;29.23;13.73;;;;;;;;;;10394054;28;20116;-84
2023/03/05 05:54:58;;;;;;;24.13;10.03;;;;;;;;;;10395996;28;20054;-84
2023/03/05 05:59:59;;;;;;;26.50;10.63;;;;;;;;;;10381611;28;20512;-84
2023/03/05 06:05:00;;;;;;;24.40;10.97;;;;;;;;;;10387742;28;20041;-84
2023/03/05 06:10:02;;;;;;;27.63;10.93;;;;;;;;;;10372011;28;20068;-83
2023/03/05 06:15:03;;;;;;;20.63;9.13;;;;;;;;;;10351242;28;20033;-83
2023/03/05 06:20:05;;;;;;;31.87;12.00;;;;;;;;;;10362104;28;20029;-83
2023/03/05 06:25:07;;;;;;;19.67;8.57;;;;;;;;;;10375713;28;20034;-83
2023/03/05 06:30:10;;;;;;;17.70;7.37;;;;;;;;;;10395073;28;20030;-83
2023/03/05 06:35:11;;;;;;;15.17;6.40;;;;;;;;;;10405308;28;20026;-83
2023/03/05 06:40:12;;;;;;;21.47;9.80;;;;;;;;;;10392562;28;20112;-84
2023/03/05 06:45:13;;;;;;;27.70;10.80;;;;;;;;;;10398890;28;20045;-83
2023/03/05 06:50:14;;;;;;;29.83;13.37;;;;;;;;;;10404114;28;20029;-83
2023/03/05 06:55:16;;;;;;;40.30;17.90;;;;;;;;;;10385989;28;20126;-83
2023/03/05 07:00:17;;;;;;;37.17;16.03;;;;;;;;;;10402799;28;20026;-84
2023/03/05 07:05:18;;;;;;;50.40;19.23;;;;;;;;;;10391010;28;20085;-83
2023/03/05 07:10:19;;;;;;;34.67;13.57;;;;;;;;;;10385480;28;20037;-83
2023/03/05 07:15:20;;;;;;;26.50;10.13;;;;;;;;;;10401433;28;20686;-83
2023/03/05 07:20:21;;;;;;;23.30;10.73;;;;;;;;;;10381663;28;20026;-84
2023/03/05 07:25:23;;;;;;;33.10;13.53;;;;;;;;;;10388335;28;20049;-82
2023/03/05 07:30:24;;;;;;;35.17;15.43;;;;;;;;;;10385644;28;20052;-83
2023/03/05 07:35:25;;;;;;;42.67;18.37;;;;;;;;;;10390387;28;20036;-83
2023/03/05 07:40:26;;;;;;;65.03;27.73;;;;;;;;;;10391830;28;20037;-83
2023/03/05 07:45:27;;;;;;;47.10;22.23;;;;;;;;;;10382846;28;20049;-83
2023/03/05 07:50:28;;;;;;;88.13;36.80;;;;;;;;;;10363770;28;20042;-83
2023/03/05 07:55:29;;;;;;;46.37;22.73;;;;;;;;;;10369384;28;20050;-83
2023/03/05 08:00:30;;;;;;;56.30;25.40;;;;;;;;;;10390062;28;20570;-83
2023/03/05 08:05:31;;;;;;;61.60;24.67;;;;;;;;;;10383795;28;20041;-82
2023/03/05 08:10:33;;;;;;;48.67;20.80;;;;;;;;;;10401514;28;20041;-84
2023/03/05 08:15:34;;;;;;;49.73;22.70;;;;;;;;;;10386537;28;20704;-82
2023/03/05 08:20:35;;;;;;;58.73;26.27;;;;;;;;;;10374138;28;20029;-82
2023/03/05 08:25:37;;;;;;;34.20;17.13;;;;;;;;;;10392653;28;20034;-83
2023/03/05 08:30:39;;;;;;;44.07;26.37;;;;;;;;;;10405638;28;20386;-82
2023/03/05 08:35:40;;;;;;;50.93;27.77;;;;;;;;;;10392421;28;20095;-83
2023/03/05 08:40:42;;;;;;;53.43;26.37;;;;;;;;;;10382123;28;20099;-81
2023/03/05 08:45:43;;;;;;;54.80;27.23;;;;;;;;;;10408889;28;20041;-82
2023/03/05 08:50:44;;;;;;;54.40;27.70;;;;;;;;;;10399824;28;20440;-81
2023/03/05 08:55:53;;;;;;;45.37;24.23;;;;;;;;;;10388667;28;20050;-82
2023/03/05 09:00:55;;;;;;;55.93;28.17;;;;;;;;;;10376438;28;20040;-81
2023/03/05 09:06:03;;;;;;;46.80;26.37;;;;;;;;;;10382098;28;20045;-81
2023/03/05 09:11:05;;;;;;;100.27;38.33;;;;;;;;;;10401965;28;20030;-81
2023/03/05 09:16:08;;;;;;;58.97;26.13;;;;;;;;;;10399986;28;20029;-81
2023/03/05 09:21:10;;;;;;;61.53;28.17;;;;;;;;;;10378441;28;20042;-81
2023/03/05 09:26:12;;;;;;;45.57;21.90;;;;;;;;;;10395446;28;20541;-82
2023/03/05 09:31:13;;;;;;;41.50;19.47;;;;;;;;;;10390278;28;20029;-81
2023/03/05 09:36:21;;;;;;;46.90;23.20;;;;;;;;;;10399344;28;20040;-81
2023/03/05 09:41:36;;;;;;;42.03;18.87;;;;;;;;;;10386622;28;20034;-81
2023/03/05 09:46:47;;;;;;;40.73;19.17;;;;;;;;;;10363591;28;20053;-81
2023/03/05 09:51:53;;;;;;;45.77;20.20;;;;;;;;;;10364205;28;20037;-81
2023/03/05 09:56:57;;;;;;;;;;;;;;;;;;10389663;28;20088;-81
2023/03/05 10:02:00;;;;;;;55.13;27.97;;;;;;;;;;10378622;28;19929;-85
2023/03/05 10:07:07;;;;;;;65.33;31.57;;;;;;;;;;10360774;28;20040;-83
2023/03/05 10:12:08;;;;;;;;;;;;;;;;;;10373402;28;20092;-82
2023/03/05 10:17:27;;;;;;;60.00;29.93;;;;;;;;;;10376084;28;19995;-83
2023/03/05 10:22:31;;;;;;;64.90;32.73;;;;;;;;;;10369284;28;20438;-83
2023/03/05 10:27:41;;;;;;;57.50;29.60;;;;;;;;;;10368147;28;20052;-83
2023/03/05 10:33:09;;;;;;;75.10;36.63;;;;;;;;;;10394494;28;20033;-81
2023/03/05 10:38:27;;;;;;;57.13;30.53;;;;;;;;;;10359409;28;20046;-82
2023/03/05 10:43:28;;;;;;;50.30;25.13;;;;;;;;;;10384604;28;20485;-82
2023/03/05 10:48:38;;;;;;;61.97;28.70;;;;;;;;;;10387174;28;20030;-82
2023/03/05 10:53:48;;;;;;;39.97;21.17;;;;;;;;;;10358965;28;20048;-80
2023/03/05 10:58:51;;;;;;;58.07;26.17;;;;;;;;;;10377057;28;20042;-81
2023/03/05 11:04:04;;;;;;;48.63;24.33;;;;;;;;;;10362277;28;20045;-81
2023/03/05 11:09:16;;;;;;;59.60;28.37;;;;;;;;;;10341302;28;20042;-82
2023/03/05 11:14:29;;;;;;;62.80;28.20;;;;;;;;;;10364248;28;20026;-80
2023/03/05 11:19:35;;;;;;;58.70;29.17;;;;;;;;;;10348543;28;20030;-81
2023/03/05 11:24:37;;;;;;;43.85;22.27;;;;;;;;;;10339554;28;20038;-79
2023/03/05 11:29:46;;;;;;;28.63;15.43;;;;;;;;;;10387349;28;21026;-84
2023/03/05 11:34:47;;;;;;;31.20;13.93;;;;;;;;;;10353422;28;20041;-82
2023/03/05 11:39:49;;;;;;;33.23;14.93;;;;;;;;;;10355018;28;20129;-82
2023/03/05 11:44:52;;;;;;;35.80;15.67;;;;;;;;;;10367482;28;20037;-85
2023/03/05 11:50:12;;;;;;;28.43;14.07;;;;;;;;;;10374158;28;20041;-84
2023/03/05 11:55:21;;;;;;;28.10;12.97;;;;;;;;;;10377493;28;20050;-85
2023/03/05 12:00:27;;;;;;;31.50;12.93;;;;;;;;;;10403264;28;20505;-84
2023/03/05 12:05:28;;;;;;;18.67;7.50;;;;;;;;;;10399789;28;20050;-85
2023/03/05 12:10:29;;;;;;;9.73;4.43;;;;;;;;;;10390054;28;20026;-84
2023/03/05 12:15:46;;;;;;;15.47;6.63;;;;;;;;;;10400952;28;20525;-82
2023/03/05 12:20:47;;;;;;;14.70;5.47;;;;;;;;;;10378355;28;20025;-83
2023/03/05 12:25:56;;;;;;;13.40;3.83;;;;;;;;;;10407152;28;20026;-83
2023/03/05 12:30:58;;;;;;;18.33;6.80;;;;;;;;;;10382139;28;20083;-83
2023/03/05 12:36:18;;;;;;;11.07;4.60;;;;;;;;;;10390659;28;20029;-84
2023/03/05 12:41:22;;;;;;;26.57;10.27;;;;;;;;;;10402808;28;20026;-83
2023/03/05 12:46:25;;;;;;;29.83;12.90;;;;;;;;;;10377473;28;20038;-83
2023/03/05 12:51:28;;;;;;;15.23;5.77;;;;;;;;;;10383573;28;20087;-82
2023/03/05 12:56:31;;;;;;;9.13;4.60;;;;;;;;;;10401418;28;20631;-83
2023/03/05 13:01:40;;;;;;;19.80;7.57;;;;;;;;;;10369226;28;20622;-83
2023/03/05 13:06:41;;;;;;;29.23;12.33;;;;;;;;;;10395586;28;20130;-84
2023/03/05 13:11:45;;;;;;;17.30;7.00;;;;;;;;;;10396392;28;20494;-84
2023/03/05 13:16:46;;;;;;;20.97;9.50;;;;;;;;;;10386237;28;20408;-82
2023/03/05 13:21:57;;;;;;;16.77;6.50;;;;;;;;;;10398523;28;20031;-83
2023/03/05 13:26:58;;;;;;;14.43;6.63;;;;;;;;;;10403565;28;20157;-83
2023/03/05 13:32:04;;;;;;;31.87;14.57;;;;;;;;;;10386802;22;20104;-82
2023/03/05 13:37:18;;;;;;;11.52;5.07;;;;;;;;;;10313204;28;20034;-83
2023/03/05 13:42:31;;;;;;;26.87;10.83;;;;;;;;;;10314667;28;20066;-81
2023/03/05 13:47:33;;;;;;;44.23;19.80;;;;;;;;;;10325183;28;20046;-83
2023/03/05 13:52:36;;;;;;;37.53;16.17;;;;;;;;;;10321774;28;20041;-82
2023/03/05 13:57:41;;;;;;;27.37;12.60;;;;;;;;;;10322634;28;20513;-83
2023/03/05 14:02:43;;;;;;;44.37;18.47;;;;;;;;;;10321561;28;20034;-84
2023/03/05 14:07:46;;;;;;;43.73;15.83;;;;;;;;;;10320024;28;20765;-84
2023/03/05 14:12:50;;;;;;;27.40;12.03;;;;;;;;;;10324277;28;20027;-81
2023/03/05 14:17:51;;;;;;;34.60;14.40;;;;;;;;;;10323253;28;20565;-81
2023/03/05 14:22:56;;;;;;;29.83;13.97;;;;;;;;;;10323448;28;20450;-81
2023/03/05 14:27:57;;;;;;;34.00;15.70;;;;;;;;;;10323357;28;20692;-82
2023/03/05 14:32:59;;;;;;;46.57;20.63;;;;;;;;;;10323067;28;20061;-83
2023/03/05 14:38:00;;;;;;;39.53;17.87;;;;;;;;;;10322953;28;20032;-84
2023/03/05 14:43:03;;;;;;;39.83;19.13;;;;;;;;;;10319617;28;20033;-83
2023/03/05 14:48:05;;;;;;;48.57;22.73;;;;;;;;;;10313460;28;20046;-80
2023/03/05 14:53:13;;;;;;;36.73;16.80;;;;;;;;;;10325339;28;20741;-80
2023/03/05 14:58:16;;;;;;;60.43;30.77;;;;;;;;;;10329774;28;20030;-81
2023/03/05 15:03:20;;;;;;;63.50;28.40;;;;;;;;;;10320734;28;20064;-81
2023/03/05 15:08:22;;;;;;;54.17;24.33;;;;;;;;;;10329122;28;20051;-82
2023/03/05 15:13:23;;;;;;;49.40;22.30;;;;;;;;;;10333215;28;20069;-81
2023/03/05 15:18:24;;;;;;;50.70;21.80;;;;;;;;;;10322566;28;20041;-81
2023/03/05 15:23:28;;;;;;;70.00;29.20;;;;;;;;;;10318228;28;20041;-81
2023/03/05 15:28:30;;;;;;;41.43;19.17;;;;;;;;;;10320197;28;20134;-81
2023/03/05 15:33:31;;;;;;;35.50;13.77;;;;;;;;;;10318972;28;20057;-81
2023/03/05 15:38:32;;;;;;;34.53;13.83;;;;;;;;;;10306174;28;20034;-80
2023/03/05 15:43:33;;;;;;;24.87;11.90;;;;;;;;;;10325534;28;20699;-81
2023/03/05 15:48:34;;;;;;;31.80;15.37;;;;;;;;;;10332293;28;20030;-80
2023/03/05 15:53:35;;;;;;;109.30;38.17;;;;;;;;;;10319583;28;20027;-81
2023/03/05 15:58:38;;;;;;;34.23;15.93;;;;;;;;;;10319273;28;20033;-81
2023/03/05 16:03:40;;;;;;;33.30;13.43;;;;;;;;;;10319520;28;20038;-82
2023/03/05 16:08:42;;;;;;;29.13;12.53;;;;;;;;;;10319212;28;20487;-80
2023/03/05 16:13:43;;;;;;;47.47;19.13;;;;;;;;;;10306140;28;20155;-82
2023/03/05 16:18:45;;;;;;;20.93;8.87;;;;;;;;;;10320128;28;20083;-82
2023/03/05 16:23:48;;;;;;;35.10;13.90;;;;;;;;;;10320215;28;20034;-82
2023/03/05 16:28:49;;;;;;;30.20;11.60;;;;;;;;;;10320151;28;20093;-82
2023/03/05 16:33:50;;;;;;;15.70;7.90;;;;;;;;;;10319480;28;20066;-81
2023/03/05 16:38:52;;;;;;;19.20;7.13;;;;;;;;;;10319882;28;20030;-81
2023/03/05 16:43:55;;;;;;;12.77;5.43;;;;;;;;;;10326642;28;20391;-82
2023/03/05 16:48:56;;;;;;;15.30;7.23;;;;;;;;;;10326874;28;20130;-83
2023/03/05 16:53:57;;;;;;;15.27;7.27;;;;;;;;;;10326449;28;20035;-83
2023/03/05 16:58:58;;;;;;;12.63;5.77;;;;;;;;;;10368340;22;20065;-83
2023/03/05 17:04:00;;;;;;;12.13;6.30;;;;;;;;;;10380238;28;20042;-83
2023/03/05 17:09:02;;;;;;;14.23;6.00;;;;;;;;;;10373579;28;20026;-83
2023/03/05 17:14:03;;;;;;;14.87;6.97;;;;;;;;;;10366328;28;20068;-84
2023/03/05 17:19:04;;;;;;;18.97;9.10;;;;;;;;;;10364564;28;20069;-83
2023/03/05 17:24:05;;;;;;;14.77;7.13;;;;;;;;;;10372895;28;20048;-83
2023/03/05 17:29:06;;;;;;;22.83;10.60;;;;;;;;;;10369368;28;20480;-83
2023/03/05 17:34:08;;;;;;;17.30;8.20;;;;;;;;;;10377428;28;20099;-82
2023/03/05 17:39:09;;;;;;;32.23;13.90;;;;;;;;;;10375809;28;20489;-84
2023/03/05 17:44:09;;;;;;;124.50;58.07;;;;;;;;;;10373555;28;20050;-83
2023/03/05 17:49:10;;;;;;;145.40;47.60;;;;;;;;;;10374298;28;20033;-83
2023/03/05 17:54:12;;;;;;;98.10;36.30;;;;;;;;;;10372941;28;20042;-83
2023/03/05 17:59:14;;;;;;;106.10;44.53;;;;;;;;;;10376614;28;20730;-85
2023/03/05 18:04:16;;;;;;;88.53;35.03;;;;;;;;;;10367567;28;20037;-83
2023/03/05 18:09:17;;;;;;;67.83;29.00;;;;;;;;;;10368662;28;20034;-83
2023/03/05 18:14:18;;;;;;;88.80;37.23;;;;;;;;;;10372457;28;20025;-83
2023/03/05 18:19:19;;;;;;;107.50;44.37;;;;;;;;;;10364843;28;20535;-84
2023/03/05 18:24:20;;;;;;;167.87;67.90;;;;;;;;;;10386286;23;20054;-82
2023/03/05 18:29:21;;;;;;;117.93;53.13;;;;;;;;;;10365925;28;20030;-83
2023/03/05 18:34:24;;;;;;;130.90;54.47;;;;;;;;;;10370004;28;20034;-84
2023/03/05 18:39:27;;;;;;;208.03;85.63;;;;;;;;;;10361301;28;20026;-83
2023/03/05 18:44:28;;;;;;;217.10;84.67;;;;;;;;;;10381198;28;20489;-84
2023/03/05 18:49:29;;;;;;;162.57;66.73;;;;;;;;;;10380299;28;20030;-83
2023/03/05 18:54:32;;;;;;;181.70;72.60;;;;;;;;;;10378001;28;20402;-84
2023/03/05 18:59:33;;;;;;;160.37;69.93;;;;;;;;;;10357379;28;20041;-84
2023/03/05 19:04:34;;;;;;;165.93;73.53;;;;;;;;;;10353352;28;20065;-84
2023/03/05 19:10:02;;;;;;;148.00;70.13;;;;;;;;;;10365447;28;20033;-85
2023/03/05 19:15:04;;;;;;;113.93;50.20;;;;;;;;;;10362484;28;20025;-85
2023/03/05 19:20:06;;;;;;;80.70;35.47;;;;;;;;;;10361853;28;20397;-84
2023/03/05 19:25:08;;;;;;;71.43;31.67;;;;;;;;;;10362118;28;20113;-85
2023/03/05 19:30:10;;;;;;;55.63;27.33;;;;;;;;;;10367117;28;20037;-83
2023/03/05 19:35:13;;;;;;;60.50;29.83;;;;;;;;;;10373120;28;20033;-84
2023/03/05 19:40:14;;;;;;;72.97;33.63;;;;;;;;;;10362023;28;20543;-84
2023/03/05 19:45:15;;;;;;;110.83;48.80;;;;;;;;;;10360243;28;20715;-84
2023/03/05 19:50:16;;;;;;;54.50;25.17;;;;;;;;;;10360556;28;20500;-81
2023/03/05 19:55:17;;;;;;;49.73;26.77;;;;;;;;;;10359684;28;20045;-84
2023/03/05 20:00:19;;;;;;;96.23;39.20;;;;;;;;;;10357648;28;20084;-83
2023/03/05 20:05:21;;;;;;;91.47;37.97;;;;;;;;;;10367476;28;20048;-84
2023/03/05 20:10:22;;;;;;;86.40;37.33;;;;;;;;;;10361402;28;20026;-83
2023/03/05 20:15:28;;;;;;;93.53;35.97;;;;;;;;;;10372364;28;20034;-84
2023/03/05 20:20:29;;;;;;;98.83;41.27;;;;;;;;;;10349053;28;20029;-84
2023/03/05 20:25:30;;;;;;;108.20;48.10;;;;;;;;;;10368350;28;20076;-84
2023/03/05 20:30:31;;;;;;;98.97;42.80;;;;;;;;;;10368785;28;20030;-84
2023/03/05 20:35:32;;;;;;;154.83;60.67;;;;;;;;;;10368603;28;20081;-85
2023/03/05 20:40:33;;;;;;;82.80;37.97;;;;;;;;;;10355216;28;20481;-84
2023/03/05 20:45:34;;;;;;;70.30;31.00;;;;;;;;;;10368803;28;20069;-84
2023/03/05 20:50:36;;;;;;;91.50;36.27;;;;;;;;;;10375746;28;20041;-84
2023/03/05 20:55:37;;;;;;;171.07;61.77;;;;;;;;;;10369273;28;20030;-84
2023/03/05 21:00:38;;;;;;;105.50;39.53;;;;;;;;;;10369412;28;20029;-84
2023/03/05 21:05:39;;;;;;;61.30;25.47;;;;;;;;;;10367891;28;20123;-83
2023/03/05 21:10:41;;;;;;;58.67;25.53;;;;;;;;;;10367520;28;20531;-85
2023/03/05 21:15:42;;;;;;;63.30;25.33;;;;;;;;;;10372480;28;20375;-84
2023/03/05 21:20:43;;;;;;;60.27;27.00;;;;;;;;;;10376129;28;20367;-85
2023/03/05 21:25:44;;;;;;;61.80;28.63;;;;;;;;;;10365425;28;20442;-85
2023/03/05 21:30:47;;;;;;;55.73;25.70;;;;;;;;;;10368708;28;20374;-85
2023/03/05 21:35:51;;;;;;;47.77;21.37;;;;;;;;;;10367979;28;20756;-85
2023/03/05 21:40:53;;;;;;;56.27;26.50;;;;;;;;;;10367507;28;20033;-85
2023/03/05 21:45:55;;;;;;;52.90;23.33;;;;;;;;;;10367801;28;20034;-85
2023/03/05 21:50:57;;;;;;;62.97;28.43;;;;;;;;;;10365924;28;20058;-85
2023/03/05 22:01:19;;;;;;;72.93;31.17;;;;;;;;;;10376353;28;20382;-85
2023/03/05 22:06:20;;;;;;;50.50;22.50;;;;;;;;;;10366206;28;20045;-85
2023/03/05 22:11:22;;;;;;;57.50;24.50;;;;;;;;;;10364812;28;20034;-85
2023/03/05 22:16:24;;;;;;;63.53;26.90;;;;;;;;;;10371016;28;20057;-85
2023/03/05 22:21:26;;;;;;;65.97;30.87;;;;;;;;;;10375652;28;20169;-85
2023/03/05 22:26:33;;;;;;;71.13;33.27;;;;;;;;;;10377261;28;20082;-85
2023/03/05 22:31:35;;;;;;;85.57;36.93;;;;;;;;;;10365511;28;20112;-84
2023/03/05 22:36:36;;;;;;;68.40;29.87;;;;;;;;;;10394369;23;20429;-85
2023/03/05 22:41:39;;;;;;;73.80;33.20;;;;;;;;;;10377277;28;20022;-85
2023/03/05 22:46:40;;;;;;;73.67;32.67;;;;;;;;;;10387911;28;20052;-85
2023/03/05 22:51:41;;;;;;;56.20;25.83;;;;;;;;;;10403920;28;20396;-85
2023/03/05 22:56:42;;;;;;;50.33;24.47;;;;;;;;;;10393775;28;20088;-85
2023/03/05 23:01:43;;;;;;;53.37;22.70;;;;;;;;;;10394570;28;20485;-85
2023/03/05 23:06:47;;;;;;;47.27;20.17;;;;;;;;;;10392002;28;20037;-85
2023/03/05 23:11:48;;;;;;;44.50;21.50;;;;;;;;;;10395639;22;20069;-85
2023/03/05 23:16:49;;;;;;;35.23;17.57;;;;;;;;;;10376514;28;20033;-85
2023/03/05 23:21:50;;;;;;;60.57;25.67;;;;;;;;;;10366294;28;20026;-85
2023/03/05 23:26:51;;;;;;;57.30;22.50;;;;;;;;;;10362721;28;20033;-85
2023/03/05 23:31:55;;;;;;;68.03;26.57;;;;;;;;;;10371993;28;20026;-85
2023/03/05 23:36:56;;;;;;;45.57;18.37;;;;;;;;;;10370399;28;20025;-85
2023/03/05 23:41:57;;;;;;;66.63;24.57;;;;;;;;;;10362832;28;20521;-85
2023/03/05 23:46:58;;;;;;;59.43;24.20;;;;;;;;;;10362764;28;20112;-85
2023/03/05 23:51:59;;;;;;;66.63;29.00;;;;;;;;;;10360614;28;20018;-85
2023/03/05 23:57:00;;;;;;;83.03;31.07;;;;;;;;;;10362364;28;20641;-85
